createdAt,value
2022-08-04T00:02:11.294Z,10.90
2022-08-04T00:04:46.146Z,8.63
2022-08-04T00:07:44.959Z,11.10
2022-08-04T00:10:11.355Z,8.13
2022-08-04T00:12:45.163Z,12.30
2022-08-04T00:15:16.845Z,7.57
2022-08-04T00:17:47.747Z,8.77
2022-08-04T00:20:19.106Z,9.90
2022-08-04T00:22:50.249Z,13.00
2022-08-04T00:25:18.273Z,9.30
2022-08-04T00:27:47.671Z,10.43
2022-08-04T00:30:15.983Z,12.77
2022-08-04T00:32:43.976Z,12.40
2022-08-04T00:35:14.971Z,9.43
2022-08-04T00:37:46.218Z,9.07
2022-08-04T00:40:29.849Z,8.63
2022-08-04T00:43:11.586Z,8.10
2022-08-04T00:46:25.291Z,9.93
2022-08-04T00:49:17.976Z,8.73
2022-08-04T00:52:30.812Z,10.00
2022-08-04T00:54:54.481Z,12.23
2022-08-04T00:57:37.579Z,7.60
2022-08-04T01:00:09.478Z,7.80
2022-08-04T01:02:40.594Z,8.67
2022-08-04T01:05:21.437Z,8.00
2022-08-04T01:08:07.662Z,9.53
2022-08-04T01:10:47.796Z,9.50
2022-08-04T01:13:48.531Z,10.23
2022-08-04T01:16:18.810Z,10.93
2022-08-04T01:18:56.472Z,7.93
2022-08-04T01:21:46.294Z,9.80
2022-08-04T01:24:56.131Z,7.77
2022-08-04T01:27:35.689Z,8.57
2022-08-04T01:30:08.246Z,9.53
2022-08-04T01:32:40.133Z,11.00
2022-08-04T01:35:21.885Z,13.23
2022-08-04T01:38:01.856Z,10.17
2022-08-04T01:40:47.420Z,13.43
2022-08-04T01:43:16.108Z,11.13
2022-08-04T01:45:51.113Z,9.63
2022-08-04T01:48:23.979Z,9.70
2022-08-04T01:50:53.476Z,8.80
2022-08-04T01:53:23.053Z,10.67
2022-08-04T01:55:54.685Z,9.97
2022-08-04T01:58:25.265Z,10.03
2022-08-04T02:01:02.350Z,8.33
2022-08-04T02:04:20.207Z,8.70
2022-08-04T02:06:32.807Z,12.40
2022-08-04T02:09:10.049Z,8.90
2022-08-04T02:11:40.455Z,9.37
2022-08-04T02:14:40.271Z,8.77
2022-08-04T02:17:13.507Z,9.00
2022-08-04T02:20:11.983Z,12.30
2022-08-04T02:22:44.826Z,11.97
2022-08-04T02:25:15.294Z,6.93
2022-08-04T02:27:59.780Z,10.30
2022-08-04T02:30:32.379Z,7.97
2022-08-04T02:33:04.757Z,10.47
2022-08-04T02:35:39.379Z,10.87
2022-08-04T02:38:25.491Z,10.40
2022-08-04T02:40:59.149Z,8.27
2022-08-04T02:43:50.915Z,10.77
2022-08-04T02:46:19.758Z,8.70
2022-08-04T02:48:50.236Z,8.77
2022-08-04T02:51:23.033Z,10.03
2022-08-04T02:53:54.443Z,10.30
2022-08-04T02:56:24.080Z,7.87
2022-08-04T02:58:57.437Z,10.07
2022-08-04T03:01:25.590Z,6.87
2022-08-04T03:04:07.200Z,8.73
2022-08-04T03:07:15.921Z,8.97
2022-08-04T03:10:16.191Z,7.80
2022-08-04T03:13:10.786Z,5.90
2022-08-04T03:16:04.287Z,10.27
2022-08-04T03:19:14.015Z,7.27
2022-08-04T03:22:14.691Z,8.47
2022-08-04T03:25:15.659Z,8.17
2022-08-04T03:28:09.682Z,8.50
2022-08-04T03:30:52.599Z,9.03
2022-08-04T03:33:41.027Z,7.57
2022-08-04T03:36:43.731Z,7.83
2022-08-04T03:39:44.934Z,9.77
2022-08-04T03:42:48.486Z,7.73
2022-08-04T03:45:47.088Z,12.07
2022-08-04T03:48:39.001Z,10.40
2022-08-04T03:51:52.017Z,7.00
2022-08-04T03:55:02.406Z,8.37
2022-08-04T03:57:53.181Z,7.90
2022-08-04T04:00:25.582Z,8.33
2022-08-04T04:03:37.492Z,7.30
2022-08-04T04:06:39.233Z,10.27
2022-08-04T04:09:32.938Z,6.50
2022-08-04T04:12:33.569Z,8.20
2022-08-04T04:15:36.354Z,9.53
2022-08-04T04:18:23.557Z,10.23
2022-08-04T04:21:28.117Z,9.27
2022-08-04T04:24:12.095Z,14.43
2022-08-04T04:26:55.961Z,15.60
2022-08-04T04:30:01.413Z,17.97
2022-08-04T04:32:51.013Z,15.53
2022-08-04T04:35:30.203Z,14.40
2022-08-04T04:38:27.046Z,18.47
2022-08-04T04:41:06.337Z,15.10
2022-08-04T04:44:01.250Z,14.47
2022-08-04T04:46:38.643Z,17.60
2022-08-04T04:49:18.171Z,15.87
2022-08-04T04:51:50.681Z,14.13
2022-08-04T04:54:29.367Z,20.77
2022-08-04T04:57:06.524Z,11.23
2022-08-04T04:59:37.774Z,13.33
2022-08-04T05:02:29.646Z,16.50
2022-08-04T05:05:20.823Z,12.03
2022-08-04T05:08:42.948Z,14.57
2022-08-04T05:11:37.288Z,9.13
2022-08-04T05:14:34.916Z,11.73
2022-08-04T05:17:03.955Z,10.27
2022-08-04T05:19:44.469Z,14.00
2022-08-04T05:22:23.277Z,9.77
2022-08-04T05:24:56.065Z,12.13
2022-08-04T05:27:29.464Z,11.70
2022-08-04T05:30:03.079Z,10.33
2022-08-04T05:32:37.914Z,12.93
2022-08-04T05:35:10.721Z,9.33
2022-08-04T05:37:42.674Z,11.03
2022-08-04T05:40:13.751Z,10.23
2022-08-04T05:42:42.488Z,8.13
2022-08-04T05:45:11.019Z,6.17
2022-08-04T05:47:39.247Z,9.40
2022-08-04T05:50:09.223Z,8.60
2022-08-04T05:52:40.124Z,8.13
2022-08-04T05:55:12.554Z,7.67
2022-08-04T05:57:50.799Z,7.33
2022-08-04T06:00:40.405Z,6.67
2022-08-04T06:03:10.796Z,7.77
2022-08-04T06:05:42.571Z,9.20
2022-08-04T06:08:13.867Z,7.53
2022-08-04T06:10:45.604Z,7.13
2022-08-04T06:13:49.497Z,6.70
2022-08-04T06:16:07.651Z,11.07
2022-08-04T06:20:00.031Z,10.07
2022-08-04T06:21:29.209Z,7.00
2022-08-04T06:24:04.264Z,7.13
2022-08-04T06:26:37.048Z,5.53
2022-08-04T06:29:05.609Z,7.63
2022-08-04T06:32:27.250Z,5.53
2022-08-04T06:34:35.570Z,8.33
2022-08-04T06:37:05.124Z,7.87
2022-08-04T06:39:35.452Z,5.83
2022-08-04T06:42:22.102Z,4.57
2022-08-04T06:44:55.019Z,4.80
2022-08-04T06:47:25.019Z,8.07
2022-08-04T06:51:24.987Z,9.07
2022-08-04T06:52:45.684Z,9.73
2022-08-04T06:55:15.212Z,3.60
2022-08-04T06:57:46.391Z,5.20
2022-08-04T07:00:17.737Z,5.50
2022-08-04T07:02:47.456Z,9.20
2022-08-04T07:05:16.342Z,5.60
2022-08-04T07:07:56.781Z,7.25
2022-08-04T07:10:28.659Z,8.23
2022-08-04T07:12:57.662Z,5.05
2022-08-04T07:15:26.793Z,5.93
2022-08-04T07:17:59.961Z,4.88
2022-08-04T07:20:33.007Z,4.75
2022-08-04T07:23:05.485Z,5.07
2022-08-04T07:25:58.799Z,5.20
2022-08-04T07:28:25.959Z,6.97
2022-08-04T07:30:55.062Z,3.53
2022-08-04T07:33:23.751Z,3.45
2022-08-04T07:36:09.113Z,6.25
2022-08-04T07:38:51.220Z,7.15
2022-08-04T07:41:40.311Z,5.40
2022-08-04T07:44:09.082Z,5.80
2022-08-04T07:46:37.637Z,6.57
2022-08-04T07:49:06.355Z,6.07
2022-08-04T07:51:35.327Z,6.40
2022-08-04T07:54:05.159Z,8.32
2022-08-04T07:56:36.284Z,8.65
2022-08-04T07:59:06.229Z,9.00
2022-08-04T08:01:36.300Z,7.72
2022-08-04T08:04:06.974Z,13.02
2022-08-04T08:06:42.630Z,11.80
2022-08-04T08:09:14.354Z,11.27
2022-08-04T08:12:35.442Z,8.45
2022-08-04T08:14:35.079Z,5.22
2022-08-04T08:17:05.264Z,10.10
2022-08-04T08:19:34.640Z,10.23
2022-08-04T08:22:03.031Z,9.90
2022-08-04T08:24:32.258Z,9.15
2022-08-04T08:27:04.393Z,9.02
2022-08-04T08:29:35.142Z,6.63
2022-08-04T08:32:08.305Z,13.60
2022-08-04T08:34:38.730Z,14.27
2022-08-04T08:37:14.629Z,8.68
2022-08-04T08:39:50.546Z,7.15
2022-08-04T08:42:40.885Z,7.85
2022-08-04T08:45:25.568Z,5.13
2022-08-04T08:48:22.609Z,11.60
2022-08-04T08:51:24.954Z,7.18
2022-08-04T08:54:17.876Z,11.02
2022-08-04T08:56:56.870Z,5.13
2022-08-04T08:59:46.372Z,3.58
2022-08-04T09:02:39.854Z,4.20
2022-08-04T09:05:28.567Z,7.13
2022-08-04T09:08:20.647Z,4.95
2022-08-04T09:10:51.299Z,5.82
2022-08-04T09:13:26.808Z,4.35
2022-08-04T09:16:03.602Z,7.05
2022-08-04T09:18:38.576Z,5.93
2022-08-04T09:21:14.479Z,4.15
2022-08-04T09:23:52.799Z,5.13
2022-08-04T09:26:27.538Z,4.05
2022-08-04T09:29:02.636Z,2.97
2022-08-04T09:31:49.086Z,4.60
2022-08-04T09:34:41.481Z,6.30
2022-08-04T09:37:18.042Z,4.70
2022-08-04T09:39:58.047Z,6.63
2022-08-04T09:42:38.941Z,2.97
2022-08-04T09:45:22.477Z,4.25
2022-08-04T09:48:00.281Z,4.40
2022-08-04T09:50:35.216Z,8.95
2022-08-04T09:53:18.967Z,3.97
2022-08-04T09:56:01.112Z,5.50
2022-08-04T09:58:45.452Z,4.28
2022-08-04T10:01:22.618Z,7.85
2022-08-04T10:03:56.549Z,5.28
2022-08-04T10:06:59.952Z,3.67
2022-08-04T10:09:53.337Z,5.47
2022-08-04T10:12:33.938Z,3.97
2022-08-04T10:15:11.127Z,4.57
2022-08-04T10:17:51.910Z,5.60
2022-08-04T10:20:47.147Z,5.45
2022-08-04T10:23:32.903Z,4.15
2022-08-04T10:26:30.062Z,3.85
2022-08-04T10:29:04.105Z,4.53
2022-08-04T10:31:36.901Z,3.38
2022-08-04T10:34:12.762Z,7.03
2022-08-04T10:36:54.519Z,3.83
2022-08-04T10:39:43.184Z,4.30
2022-08-04T10:42:22.756Z,5.22
2022-08-04T10:45:05.111Z,2.83
2022-08-04T10:47:37.867Z,3.30
2022-08-04T10:50:10.009Z,3.88
2022-08-04T10:52:44.089Z,3.20
2022-08-04T10:55:18.319Z,3.25
2022-08-04T10:57:50.930Z,3.75
2022-08-04T11:00:24.023Z,5.07
2022-08-04T11:02:57.179Z,4.93
2022-08-04T11:05:31.607Z,5.53
2022-08-04T11:08:10.090Z,5.65
2022-08-04T11:10:46.089Z,4.53
2022-08-04T11:13:22.170Z,7.95
2022-08-04T11:16:03.373Z,4.82
2022-08-04T11:18:39.471Z,3.97
2022-08-04T11:21:13.745Z,5.80
2022-08-04T11:23:48.571Z,2.75
2022-08-04T11:26:24.176Z,4.07
2022-08-04T11:29:03.245Z,5.32
2022-08-04T11:31:33.882Z,2.65
2022-08-04T11:34:06.495Z,3.33
2022-08-04T11:36:40.671Z,3.63
2022-08-04T11:39:14.970Z,3.05
2022-08-04T11:41:49.371Z,2.97
2022-08-04T11:44:25.236Z,2.60
2022-08-04T11:46:57.947Z,2.80
2022-08-04T11:49:56.081Z,3.30
2022-08-04T11:52:24.327Z,3.28
2022-08-04T11:54:55.160Z,2.58
2022-08-04T11:57:23.937Z,3.55
2022-08-04T12:00:09.955Z,3.22
2022-08-04T12:03:05.395Z,5.78
2022-08-04T12:05:37.876Z,3.38
2022-08-04T12:08:25.201Z,4.95
2022-08-04T12:11:07.775Z,3.08
2022-08-04T12:13:41.931Z,5.75
2022-08-04T12:16:16.845Z,3.30
2022-08-04T12:18:54.916Z,3.30
2022-08-04T12:21:30.490Z,4.60
2022-08-04T12:24:03.110Z,3.45
2022-08-04T12:26:38.459Z,4.93
2022-08-04T12:29:10.975Z,8.25
2022-08-04T12:31:46.615Z,4.32
2022-08-04T12:34:18.217Z,2.70
2022-08-04T12:36:55.819Z,3.00
2022-08-04T12:39:26.762Z,4.38
2022-08-04T12:42:03.283Z,2.72
2022-08-04T12:44:37.600Z,2.70
2022-08-04T12:47:27.887Z,4.32
2022-08-04T12:50:01.715Z,3.53
2022-08-04T12:52:59.187Z,3.17
2022-08-04T12:55:23.195Z,2.83
2022-08-04T12:57:54.603Z,4.70
2022-08-04T13:00:31.975Z,3.22
2022-08-04T13:03:10.007Z,4.78
2022-08-04T13:05:41.637Z,3.15
2022-08-04T13:08:11.393Z,2.92
2022-08-04T13:10:41.836Z,2.40
2022-08-04T13:13:18.334Z,6.20
2022-08-04T13:15:57.738Z,5.40
2022-08-04T13:18:32.367Z,4.60
2022-08-04T13:21:19.424Z,4.95
2022-08-04T13:26:54.852Z,5.00
2022-08-04T13:30:00.602Z,2.35
2022-08-04T13:30:24.215Z,3.88
2022-08-04T13:32:22.210Z,3.97
2022-08-04T13:34:56.862Z,3.88
2022-08-04T13:37:31.501Z,2.45
2022-08-04T13:40:01.138Z,2.53
2022-08-04T13:42:30.048Z,2.58
2022-08-04T13:45:01.778Z,5.85
2022-08-04T13:47:33.342Z,3.90
2022-08-04T13:50:18.118Z,5.95
2022-08-04T13:52:47.959Z,7.22
2022-08-04T13:55:28.363Z,3.30
2022-08-04T13:58:03.425Z,11.13
2022-08-04T14:00:46.333Z,7.22
2022-08-04T14:03:24.292Z,3.47
2022-08-04T14:06:16.344Z,2.83
2022-08-04T14:08:52.643Z,2.80
2022-08-04T14:12:10.461Z,4.18
2022-08-04T14:14:16.644Z,2.88
2022-08-04T14:17:00.483Z,3.88
2022-08-04T14:19:36.361Z,4.38
2022-08-04T14:22:05.372Z,3.97
2022-08-04T14:24:33.247Z,2.53
2022-08-04T14:27:01.492Z,4.50
2022-08-04T14:29:38.577Z,3.58
2022-08-04T14:32:12.633Z,2.83
2022-08-04T14:34:45.711Z,4.10
2022-08-04T14:37:19.377Z,3.30
2022-08-04T14:40:08.086Z,3.58
2022-08-04T14:42:42.489Z,6.10
2022-08-04T14:45:12.198Z,6.03
2022-08-04T14:47:52.580Z,3.65
2022-08-04T14:50:22.767Z,4.40
2022-08-04T14:52:50.672Z,7.30
2022-08-04T14:55:21.028Z,2.58
2022-08-04T14:58:36.167Z,3.13
2022-08-04T15:00:37.980Z,4.32
2022-08-04T15:03:09.454Z,3.90
2022-08-04T15:06:03.796Z,4.68
2022-08-04T15:08:30.892Z,4.13
2022-08-04T15:11:02.327Z,8.25
2022-08-04T15:13:30.715Z,3.03
2022-08-04T15:16:06.015Z,3.90
2022-08-04T15:18:39.104Z,6.05
2022-08-04T15:21:08.040Z,6.70
2022-08-04T15:23:38.573Z,7.22
2022-08-04T15:26:13.837Z,7.82
2022-08-04T15:28:45.787Z,8.02
2022-08-04T15:32:04.255Z,9.68
2022-08-04T15:34:04.956Z,4.10
2022-08-04T15:36:38.977Z,3.85
2022-08-04T15:39:18.347Z,4.93
2022-08-04T15:41:57.396Z,9.02
2022-08-04T15:44:55.192Z,9.20
2022-08-04T15:47:27.305Z,5.15
2022-08-04T15:50:09.068Z,9.60
2022-08-04T15:53:10.710Z,15.25
2022-08-04T15:55:43.063Z,9.25
2022-08-04T15:58:13.242Z,12.45
2022-08-04T16:01:16.403Z,9.45
2022-08-04T16:03:58.551Z,14.57
2022-08-04T16:06:45.172Z,16.17
2022-08-04T16:09:24.486Z,8.77
2022-08-04T16:11:52.894Z,11.55
2022-08-04T16:14:33.634Z,11.07
2022-08-04T16:17:19.456Z,9.55
2022-08-04T16:20:04.534Z,14.27
2022-08-04T16:22:41.877Z,13.18
2022-08-04T16:25:10.511Z,12.05
2022-08-04T16:27:45.434Z,13.80
2022-08-04T16:30:15.353Z,12.82
2022-08-04T16:32:45.185Z,13.75
2022-08-04T16:35:29.546Z,13.10
2022-08-04T16:40:56.579Z,15.07
2022-08-04T16:43:29.533Z,12.48
2022-08-04T16:45:59.726Z,16.52
2022-08-04T16:48:29.431Z,12.02
2022-08-04T16:51:04.773Z,10.95
2022-08-04T16:54:02.598Z,15.10
2022-08-04T16:56:33.003Z,9.63
2022-08-04T16:59:08.129Z,10.40
2022-08-04T17:01:36.783Z,13.82
2022-08-04T17:04:06.589Z,11.63
2022-08-04T17:06:36.856Z,14.77
2022-08-04T17:09:10.726Z,13.23
2022-08-04T17:11:40.636Z,12.07
2022-08-04T17:14:08.895Z,11.13
2022-08-04T17:16:38.475Z,12.23
2022-08-04T17:19:24.303Z,10.43
2022-08-04T17:22:02.175Z,12.30
2022-08-04T17:24:30.569Z,11.93
2022-08-04T17:27:00.023Z,13.17
2022-08-04T17:29:43.247Z,11.37
2022-08-04T17:32:18.522Z,12.63
2022-08-04T17:34:49.157Z,11.23
2022-08-04T17:37:41.238Z,11.03
2022-08-04T17:40:11.536Z,9.17
2022-08-04T17:42:41.828Z,16.63
2022-08-04T17:45:49.129Z,11.43
2022-08-04T17:48:00.660Z,12.40
2022-08-04T17:50:34.754Z,8.47
2022-08-04T17:53:12.200Z,11.87
2022-08-04T17:55:43.138Z,9.70
2022-08-04T17:58:21.551Z,10.33
2022-08-04T18:01:10.736Z,12.77
2022-08-04T18:03:52.860Z,11.13
2022-08-04T18:06:22.692Z,15.07
2022-08-04T18:08:57.453Z,12.13
2022-08-04T18:11:29.928Z,10.20
2022-08-04T18:14:11.549Z,13.57
2022-08-04T18:16:46.002Z,11.63
2022-08-04T18:19:15.445Z,11.73
2022-08-04T18:21:46.990Z,9.73
2022-08-04T18:24:35.434Z,12.53
2022-08-04T18:27:16.611Z,13.00
2022-08-04T18:29:50.204Z,11.70
2022-08-04T18:32:34.708Z,14.63
2022-08-04T18:38:05.336Z,10.03
2022-08-04T18:40:52.851Z,11.07
2022-08-04T18:43:28.183Z,8.47
2022-08-04T18:45:59.926Z,9.20
2022-08-04T18:48:36.935Z,7.23
2022-08-04T18:51:23.039Z,11.27
2022-08-04T18:53:55.239Z,11.40
2022-08-04T18:59:16.233Z,7.67
2022-08-04T19:02:13.574Z,7.80
2022-08-04T19:04:36.926Z,13.33
2022-08-04T19:07:29.207Z,10.87
2022-08-04T19:09:57.837Z,10.20
2022-08-04T19:12:28.477Z,10.57
2022-08-04T19:14:58.251Z,7.37
2022-08-04T19:17:53.219Z,10.13
2022-08-04T19:20:25.800Z,8.80
2022-08-04T19:24:26.333Z,9.30
2022-08-04T19:26:01.242Z,8.60
2022-08-04T19:28:34.399Z,9.53
2022-08-04T19:31:04.194Z,11.77
2022-08-04T19:33:58.951Z,7.43
2022-08-04T19:36:27.747Z,8.20
2022-08-04T19:38:57.534Z,10.47
2022-08-04T19:41:26.516Z,8.90
2022-08-04T19:43:55.072Z,9.07
2022-08-04T19:46:24.847Z,8.17
2022-08-04T19:48:59.745Z,11.70
2022-08-04T19:51:29.991Z,9.77
2022-08-04T19:54:04.169Z,8.90
2022-08-04T19:56:40.315Z,10.83
2022-08-04T19:59:10.027Z,12.90
2022-08-04T20:01:44.817Z,9.13
2022-08-04T20:04:15.450Z,7.03
2022-08-04T20:06:44.077Z,10.63
2022-08-04T20:09:26.149Z,8.33
2022-08-04T20:11:55.889Z,9.47
2022-08-04T20:14:31.245Z,10.80
2022-08-04T20:16:59.853Z,9.77
2022-08-04T20:19:30.469Z,9.70
2022-08-04T20:21:58.805Z,11.93
2022-08-04T20:24:38.168Z,9.23
2022-08-04T20:27:15.414Z,12.83
2022-08-04T20:29:48.534Z,11.50
2022-08-04T20:32:19.194Z,9.17
2022-08-04T20:34:49.547Z,9.80
2022-08-04T20:37:19.440Z,10.40
2022-08-04T20:39:54.645Z,12.90
2022-08-04T20:42:27.537Z,9.53
2022-08-04T20:45:02.914Z,10.53
2022-08-04T20:50:29.505Z,9.00
2022-08-04T20:52:58.750Z,11.97
2022-08-04T20:55:29.659Z,12.67
2022-08-04T20:58:03.188Z,12.03
2022-08-04T21:00:31.857Z,11.30
2022-08-04T21:02:59.998Z,11.37
2022-08-04T21:05:31.586Z,9.23
2022-08-04T21:08:00.173Z,11.17
2022-08-04T21:10:29.868Z,9.67
2022-08-04T21:12:57.932Z,10.63
2022-08-04T21:15:58.093Z,11.93
2022-08-04T21:18:16.798Z,11.13
2022-08-04T21:20:48.062Z,13.87
2022-08-04T21:23:16.600Z,10.50
2022-08-04T21:25:45.500Z,11.57
2022-08-04T21:28:20.112Z,15.80
2022-08-04T21:30:54.009Z,11.03
2022-08-04T21:33:49.793Z,10.83
2022-08-04T21:36:14.353Z,10.43
2022-08-04T21:38:51.124Z,9.83
2022-08-04T21:41:24.580Z,11.00
2022-08-04T21:43:54.823Z,11.17
2022-08-04T21:46:23.219Z,10.77
2022-08-04T21:48:51.643Z,12.07
2022-08-04T21:51:59.197Z,12.17
2022-08-04T21:54:11.641Z,9.93
2022-08-04T21:56:50.900Z,10.93
2022-08-04T21:59:28.552Z,12.47
2022-08-04T22:02:00.356Z,10.53
2022-08-04T22:04:29.065Z,9.67
2022-08-04T22:06:58.249Z,8.23
2022-08-04T22:09:31.606Z,9.10
2022-08-04T22:12:07.144Z,9.13
2022-08-04T22:14:39.421Z,9.70
2022-08-04T22:17:07.322Z,9.53
2022-08-04T22:19:55.180Z,10.47
2022-08-04T22:22:27.209Z,10.20
2022-08-04T22:25:01.568Z,8.20
2022-08-04T22:27:55.021Z,9.40
2022-08-04T22:30:24.128Z,10.70
2022-08-04T22:32:56.954Z,14.63
2022-08-04T22:35:36.545Z,13.03
2022-08-04T22:38:37.058Z,15.73
2022-08-04T22:41:03.481Z,12.57
2022-08-04T22:43:34.422Z,11.57
2022-08-04T22:46:06.484Z,14.40
2022-08-04T22:48:35.580Z,12.53
2022-08-04T22:51:04.271Z,13.10
2022-08-04T22:53:33.875Z,16.10
2022-08-04T22:56:10.033Z,15.77
2022-08-04T22:58:45.238Z,16.00
2022-08-04T23:01:15.177Z,18.73
2022-08-04T23:03:50.871Z,20.27
2022-08-04T23:06:24.958Z,21.27
2022-08-04T23:08:54.767Z,19.03
2022-08-04T23:11:22.568Z,19.87
2022-08-04T23:13:50.477Z,24.03
2022-08-04T23:16:18.971Z,22.13
2022-08-04T23:18:49.096Z,22.83
2022-08-04T23:21:24.249Z,23.23
2022-08-04T23:23:57.130Z,24.53
2022-08-04T23:26:30.687Z,23.33
2022-08-04T23:28:58.791Z,29.17
2022-08-04T23:31:41.183Z,30.33
2022-08-04T23:34:14.870Z,31.13
2022-08-04T23:36:47.542Z,28.90
2022-08-04T23:39:16.888Z,26.57
2022-08-04T23:41:55.255Z,29.43
2022-08-04T23:44:26.868Z,31.40
2022-08-04T23:47:02.402Z,33.10
2022-08-04T23:49:44.302Z,31.43
2022-08-04T23:52:23.136Z,32.87
2022-08-04T23:54:59.261Z,35.53
2022-08-04T23:57:31.479Z,32.60
